createdAt,value
2018-04-22T00:00:07.060Z,74.60
2018-04-22T00:01:12.086Z,75.30
2018-04-22T00:02:09.249Z,75.80
2018-04-22T00:03:09.257Z,76.20
2018-04-22T00:04:05.741Z,76.20
2018-04-22T00:05:05.726Z,75.90
2018-04-22T00:06:12.145Z,75.80
2018-04-22T00:07:10.179Z,76.00
2018-04-22T00:08:06.121Z,76.00
2018-04-22T00:09:05.494Z,76.00
2018-04-22T00:10:06.382Z,76.30
2018-04-22T00:11:05.971Z,76.30
2018-04-22T00:12:05.734Z,76.00
2018-04-22T00:13:05.888Z,75.90
2018-04-22T00:14:06.259Z,76.00
2018-04-22T00:15:06.476Z,75.80
2018-04-22T00:16:06.568Z,75.70
2018-04-22T00:17:11.927Z,75.80
2018-04-22T00:18:05.947Z,75.60
2018-04-22T00:19:09.575Z,75.20
2018-04-22T00:20:08.906Z,75.10
2018-04-22T00:21:09.567Z,75.10
2018-04-22T00:22:12.001Z,75.10
2018-04-22T00:23:15.566Z,75.10
2018-04-22T00:24:09.900Z,75.20
2018-04-22T00:25:06.412Z,75.20
2018-04-22T00:26:11.069Z,75.50
2018-04-22T00:27:13.255Z,76.10
2018-04-22T00:28:08.947Z,76.10
2018-04-22T00:29:11.784Z,76.10
2018-04-22T00:30:06.377Z,76.00
2018-04-22T00:31:06.453Z,76.10
2018-04-22T00:32:09.272Z,76.30
2018-04-22T00:33:05.864Z,76.30
2018-04-22T00:34:11.774Z,76.20
2018-04-22T00:35:06.364Z,76.30
2018-04-22T00:36:06.228Z,76.60
2018-04-22T00:37:05.994Z,76.80
2018-04-22T00:38:05.909Z,76.50
2018-04-22T00:39:05.939Z,76.50
2018-04-22T00:40:10.869Z,77.00
2018-04-22T00:41:12.067Z,77.00
2018-04-22T00:42:05.638Z,76.90
2018-04-22T00:43:05.447Z,76.80
2018-04-22T00:44:11.444Z,77.00
2018-04-22T00:45:05.927Z,77.40
2018-04-22T00:46:10.905Z,77.20
2018-04-22T00:47:06.903Z,77.10
2018-04-22T00:48:06.416Z,76.80
2018-04-22T00:49:05.619Z,76.60
2018-04-22T00:50:06.861Z,76.90
2018-04-22T00:51:11.959Z,76.50
2018-04-22T00:52:05.597Z,76.50
2018-04-22T00:53:11.155Z,76.80
2018-04-22T00:54:05.966Z,76.80
2018-04-22T00:55:15.761Z,77.00
2018-04-22T00:56:06.868Z,77.00
2018-04-22T00:57:06.225Z,76.90
2018-04-22T00:58:06.104Z,77.00
2018-04-22T00:59:05.956Z,77.00
2018-04-22T01:00:06.436Z,76.70
2018-04-22T01:01:13.702Z,76.70
2018-04-22T01:02:06.584Z,76.70
2018-04-22T01:03:11.157Z,77.70
2018-04-22T01:04:09.306Z,77.30
2018-04-22T01:05:06.135Z,77.30
2018-04-22T01:06:10.424Z,76.80
2018-04-22T01:07:11.488Z,76.90
2018-04-22T01:08:11.675Z,76.90
2018-04-22T01:09:06.279Z,77.00
2018-04-22T01:10:05.915Z,77.10
2018-04-22T01:11:09.929Z,77.10
2018-04-22T01:12:12.548Z,76.80
2018-04-22T01:13:14.383Z,76.60
2018-04-22T01:14:10.906Z,76.80
2018-04-22T01:15:11.770Z,76.80
2018-04-22T01:16:06.257Z,77.10
2018-04-22T01:17:06.766Z,77.50
2018-04-22T01:18:06.722Z,77.20
2018-04-22T01:19:06.802Z,77.70
2018-04-22T01:20:06.355Z,78.10
2018-04-22T01:21:06.313Z,77.90
2018-04-22T01:22:06.193Z,77.80
2018-04-22T01:23:09.995Z,77.60
2018-04-22T01:24:09.324Z,77.40
2018-04-22T01:25:11.450Z,77.40
2018-04-22T01:26:06.467Z,77.50
2018-04-22T01:27:09.722Z,77.80
2018-04-22T01:28:11.510Z,77.90
2018-04-22T01:29:09.654Z,78.10
2018-04-22T01:30:12.390Z,78.20
2018-04-22T01:31:05.891Z,78.20
2018-04-22T01:32:10.833Z,78.00
2018-04-22T01:33:06.798Z,78.20
2018-04-22T01:34:06.425Z,78.00
2018-04-22T01:35:09.337Z,78.10
2018-04-22T01:36:09.021Z,78.40
2018-04-22T01:37:10.587Z,78.40
2018-04-22T01:38:11.505Z,78.20
2018-04-22T01:39:11.785Z,78.20
2018-04-22T01:40:11.897Z,78.20
2018-04-22T01:41:06.631Z,78.20
2018-04-22T01:42:10.286Z,78.40
2018-04-22T01:43:09.613Z,78.20
2018-04-22T01:44:06.123Z,78.20
2018-04-22T01:45:11.423Z,78.20
2018-04-22T01:46:05.450Z,78.20
2018-04-22T01:47:05.490Z,78.50
2018-04-22T01:48:14.410Z,78.80
2018-04-22T01:49:11.301Z,79.00
2018-04-22T01:50:05.821Z,79.00
2018-04-22T01:51:05.762Z,79.10
2018-04-22T01:52:05.628Z,79.10
2018-04-22T01:53:14.416Z,79.00
2018-04-22T01:54:12.258Z,79.00
2018-04-22T01:55:05.935Z,79.10
2018-04-22T01:56:13.325Z,79.20
2018-04-22T01:57:05.997Z,79.20
2018-04-22T01:58:06.359Z,79.20
2018-04-22T01:59:06.250Z,79.20
2018-04-22T02:00:11.492Z,79.50
2018-04-22T02:01:06.447Z,79.60
2018-04-22T02:02:12.271Z,79.40
2018-04-22T02:03:05.902Z,79.40
2018-04-22T02:04:06.532Z,79.30
2018-04-22T02:05:10.608Z,79.00
2018-04-22T02:06:09.131Z,78.90
2018-04-22T02:07:05.572Z,79.00
2018-04-22T02:08:09.134Z,78.70
2018-04-22T02:09:12.735Z,79.00
2018-04-22T02:10:09.446Z,79.00
2018-04-22T02:11:05.591Z,79.00
2018-04-22T02:12:12.089Z,79.30
2018-04-22T02:13:08.742Z,79.20
2018-04-22T02:14:09.704Z,79.20
2018-04-22T02:15:11.614Z,79.20
2018-04-22T02:16:09.378Z,79.30
2018-04-22T02:17:12.284Z,79.30
2018-04-22T02:18:10.887Z,79.40
2018-04-22T02:19:13.945Z,79.40
2018-04-22T02:20:06.486Z,79.40
2018-04-22T02:21:06.427Z,79.20
2018-04-22T02:22:06.146Z,79.40
2018-04-22T02:23:06.281Z,79.70
2018-04-22T02:24:05.792Z,79.80
2018-04-22T02:25:09.451Z,79.60
2018-04-22T02:26:10.818Z,79.50
2018-04-22T02:27:05.881Z,79.50
2018-04-22T02:28:12.056Z,79.50
2018-04-22T02:29:06.160Z,79.40
2018-04-22T02:30:06.440Z,79.20
2018-04-22T02:31:11.853Z,78.90
2018-04-22T02:32:05.972Z,78.90
2018-04-22T02:33:05.572Z,79.00
2018-04-22T02:34:14.862Z,79.40
2018-04-22T02:35:06.774Z,79.40
2018-04-22T02:36:06.693Z,79.80
2018-04-22T02:37:06.289Z,79.80
2018-04-22T02:38:09.087Z,79.50
2018-04-22T02:39:08.780Z,79.40
2018-04-22T02:40:06.793Z,79.30
2018-04-22T02:41:06.917Z,79.20
2018-04-22T02:42:06.183Z,79.10
2018-04-22T02:43:12.240Z,79.20
2018-04-22T02:44:09.082Z,79.20
2018-04-22T02:45:09.085Z,79.10
2018-04-22T02:46:05.584Z,79.20
2018-04-22T02:47:06.394Z,79.30
2018-04-22T02:48:09.393Z,79.50
2018-04-22T02:49:10.150Z,79.70
2018-04-22T02:50:05.664Z,79.70
2018-04-22T02:51:08.090Z,79.90
2018-04-22T02:52:05.616Z,79.90
2018-04-22T02:53:06.193Z,80.10
2018-04-22T02:54:12.245Z,80.00
2018-04-22T02:55:05.835Z,80.00
2018-04-22T02:56:05.762Z,79.80
2018-04-22T02:57:16.576Z,79.80
2018-04-22T02:58:11.279Z,79.80
2018-04-22T02:59:06.071Z,79.70
2018-04-22T03:00:06.006Z,79.60
2018-04-22T03:01:09.492Z,79.80
2018-04-22T03:02:11.595Z,79.70
2018-04-22T03:03:12.185Z,79.90
2018-04-22T03:04:13.296Z,79.90
2018-04-22T03:05:09.181Z,80.00
2018-04-22T03:06:05.600Z,80.00
2018-04-22T03:07:11.663Z,79.80
2018-04-22T03:08:06.419Z,79.70
2018-04-22T03:09:05.935Z,79.60
2018-04-22T03:10:09.181Z,79.80
2018-04-22T03:11:06.293Z,79.80
2018-04-22T03:12:05.478Z,79.80
2018-04-22T03:13:05.969Z,79.90
2018-04-22T03:14:05.634Z,80.40
2018-04-22T03:15:06.583Z,80.50
2018-04-22T03:16:11.614Z,80.30
2018-04-22T03:17:06.242Z,80.30
2018-04-22T03:18:10.981Z,80.50
2018-04-22T03:19:11.294Z,80.50
2018-04-22T03:20:10.976Z,80.30
2018-04-22T03:21:14.920Z,80.30
2018-04-22T03:22:11.618Z,80.30
2018-04-22T03:23:14.497Z,80.30
2018-04-22T03:24:06.009Z,80.30
2018-04-22T03:25:06.004Z,80.70
2018-04-22T03:26:12.100Z,80.60
2018-04-22T03:27:09.125Z,80.60
2018-04-22T03:28:11.672Z,80.40
2018-04-22T03:29:06.305Z,80.50
2018-04-22T03:30:05.562Z,80.40
2018-04-22T03:31:09.449Z,80.40
2018-04-22T03:32:05.976Z,80.50
2018-04-22T03:33:16.669Z,80.70
2018-04-22T03:34:08.826Z,81.10
2018-04-22T03:35:06.638Z,81.10
2018-04-22T03:36:06.270Z,81.60
2018-04-22T03:37:07.147Z,81.60
2018-04-22T03:38:11.508Z,81.40
2018-04-22T03:39:09.435Z,81.50
2018-04-22T03:40:05.973Z,81.60
2018-04-22T03:41:05.627Z,81.80
2018-04-22T03:42:13.182Z,82.10
2018-04-22T03:43:05.712Z,82.00
2018-04-22T03:44:06.121Z,81.90
2018-04-22T03:45:12.142Z,81.70
2018-04-22T03:46:05.877Z,81.60
2018-04-22T03:47:06.379Z,81.50
2018-04-22T03:48:09.537Z,81.60
2018-04-22T03:49:11.022Z,81.60
2018-04-22T03:50:10.769Z,81.10
2018-04-22T03:51:06.466Z,81.10
2018-04-22T03:52:06.164Z,81.00
2018-04-22T03:53:06.858Z,80.80
2018-04-22T03:54:05.742Z,80.70
2018-04-22T03:55:06.551Z,80.70
2018-04-22T03:56:13.615Z,80.70
2018-04-22T03:57:09.502Z,80.70
2018-04-22T03:58:12.511Z,80.80
2018-04-22T03:59:06.179Z,80.60
2018-04-22T04:00:08.548Z,80.60
2018-04-22T04:01:06.080Z,80.50
2018-04-22T04:02:06.623Z,80.50
2018-04-22T04:03:06.746Z,80.80
2018-04-22T04:04:05.898Z,81.00
2018-04-22T04:05:08.298Z,81.10
2018-04-22T04:06:11.946Z,81.00
2018-04-22T04:07:11.963Z,81.00
2018-04-22T04:08:11.344Z,81.00
2018-04-22T04:09:11.943Z,81.00
2018-04-22T04:10:12.695Z,80.80
2018-04-22T04:11:12.714Z,80.90
2018-04-22T04:12:10.164Z,81.00
2018-04-22T04:13:08.300Z,81.10
2018-04-22T04:14:09.558Z,81.00
2018-04-22T04:15:08.849Z,81.00
2018-04-22T04:16:06.867Z,81.00
2018-04-22T04:17:06.506Z,81.10
2018-04-22T04:18:08.546Z,80.80
2018-04-22T04:19:06.513Z,80.80
2018-04-22T04:20:08.863Z,80.80
2018-04-22T04:21:05.707Z,80.70
2018-04-22T04:22:09.494Z,81.00
2018-04-22T04:23:09.177Z,81.00
2018-04-22T04:24:05.849Z,81.00
2018-04-22T04:25:12.204Z,80.90
2018-04-22T04:26:05.937Z,80.90
2018-04-22T04:27:11.349Z,80.80
2018-04-22T04:28:05.930Z,80.80
2018-04-22T04:29:11.353Z,81.00
2018-04-22T04:30:06.045Z,81.00
2018-04-22T04:31:13.363Z,81.10
2018-04-22T04:32:05.916Z,81.10
2018-04-22T04:33:12.252Z,81.10
2018-04-22T04:34:05.844Z,81.10
2018-04-22T04:35:13.671Z,81.30
2018-04-22T04:36:06.628Z,81.30
2018-04-22T04:37:06.654Z,81.30
2018-04-22T04:38:13.671Z,81.40
2018-04-22T04:39:06.239Z,81.50
2018-04-22T04:40:06.467Z,81.50
2018-04-22T04:41:06.784Z,81.50
2018-04-22T04:42:06.463Z,81.50
2018-04-22T04:43:12.401Z,82.20
2018-04-22T04:44:06.370Z,82.20
2018-04-22T04:45:06.581Z,82.30
2018-04-22T04:46:07.044Z,82.40
2018-04-22T04:47:11.378Z,82.60
2018-04-22T04:48:06.608Z,82.60
2018-04-22T04:49:05.992Z,82.50
2018-04-22T04:50:06.427Z,82.40
2018-04-22T04:51:06.287Z,82.40
2018-04-22T04:52:06.531Z,82.30
2018-04-22T04:53:06.382Z,82.30
2018-04-22T04:54:09.590Z,82.20
2018-04-22T04:55:11.945Z,82.00
2018-04-22T04:56:06.021Z,82.10
2018-04-22T04:57:05.910Z,81.70
2018-04-22T04:58:10.750Z,81.40
2018-04-22T04:59:06.214Z,81.30
2018-04-22T05:00:05.448Z,81.00
2018-04-22T05:01:06.549Z,80.80
2018-04-22T05:02:09.598Z,80.40
2018-04-22T05:03:06.454Z,80.30
2018-04-22T05:04:09.844Z,79.80
2018-04-22T05:05:05.975Z,79.80
2018-04-22T05:06:05.942Z,79.50
2018-04-22T05:07:05.476Z,79.00
2018-04-22T05:08:06.736Z,79.00
2018-04-22T05:09:06.487Z,78.50
2018-04-22T05:10:06.743Z,78.40
2018-04-22T05:11:06.850Z,77.90
2018-04-22T05:12:08.675Z,77.70
2018-04-22T05:13:11.101Z,77.40
2018-04-22T05:14:05.671Z,77.40
2018-04-22T05:15:06.398Z,77.30
2018-04-22T05:16:06.584Z,76.90
2018-04-22T05:17:11.048Z,76.60
2018-04-22T05:18:05.504Z,76.30
2018-04-22T05:19:13.301Z,75.90
2018-04-22T05:20:05.803Z,75.90
2018-04-22T05:21:05.578Z,75.70
2018-04-22T05:22:05.899Z,75.50
2018-04-22T05:23:06.074Z,75.10
2018-04-22T05:24:08.328Z,74.90
2018-04-22T05:25:09.296Z,74.50
2018-04-22T05:26:10.979Z,74.50
2018-04-22T05:27:05.641Z,74.30
2018-04-22T05:28:05.686Z,73.90
2018-04-22T05:29:11.802Z,73.80
2018-04-22T05:30:06.050Z,73.40
2018-04-22T05:31:10.068Z,72.80
2018-04-22T05:32:11.125Z,72.60
2018-04-22T05:33:05.720Z,72.60
2018-04-22T05:34:07.189Z,72.50
2018-04-22T05:35:05.791Z,72.00
2018-04-22T05:36:11.515Z,71.10
2018-04-22T05:37:06.107Z,71.10
2018-04-22T05:38:06.607Z,71.10
2018-04-22T05:39:06.848Z,70.90
2018-04-22T05:40:05.619Z,70.50
2018-04-22T05:41:06.532Z,69.60
2018-04-22T05:42:06.583Z,69.20
2018-04-22T05:43:06.126Z,69.00
2018-04-22T05:44:12.470Z,68.10
2018-04-22T05:45:06.267Z,68.10
2018-04-22T05:46:11.176Z,67.30
2018-04-22T05:47:10.209Z,67.00
2018-04-22T05:48:06.392Z,67.00
2018-04-22T05:49:06.176Z,66.90
2018-04-22T05:50:05.900Z,66.50
2018-04-22T05:51:06.060Z,66.10
2018-04-22T05:52:06.750Z,65.60
2018-04-22T05:53:11.032Z,64.90
2018-04-22T05:54:08.539Z,64.70
2018-04-22T05:55:06.588Z,64.70
2018-04-22T05:56:05.821Z,64.70
2018-04-22T05:57:06.205Z,63.70
2018-04-22T05:58:06.708Z,63.50
2018-04-22T05:59:06.468Z,63.70
2018-04-22T06:00:09.291Z,63.20
2018-04-22T06:01:05.844Z,63.20
2018-04-22T06:02:10.898Z,63.30
2018-04-22T06:03:07.961Z,62.90
2018-04-22T06:04:05.906Z,63.00
2018-04-22T06:05:08.439Z,62.00
2018-04-22T06:06:08.985Z,62.10
2018-04-22T06:07:08.976Z,61.60
2018-04-22T06:08:06.486Z,61.60
2018-04-22T06:09:06.451Z,61.20
2018-04-22T06:10:12.548Z,60.60
2018-04-22T06:11:16.405Z,59.60
2018-04-22T06:12:06.036Z,59.60
2018-04-22T06:13:06.235Z,59.60
2018-04-22T06:14:06.235Z,59.70
2018-04-22T06:15:05.746Z,59.90
2018-04-22T06:16:06.618Z,59.70
2018-04-22T06:17:05.962Z,59.50
2018-04-22T06:18:10.622Z,59.00
2018-04-22T06:19:06.004Z,59.00
2018-04-22T06:20:06.298Z,58.70
2018-04-22T06:21:06.069Z,57.40
2018-04-22T06:22:12.502Z,57.30
2018-04-22T06:23:11.815Z,57.30
2018-04-22T06:24:06.538Z,57.30
2018-04-22T06:25:06.280Z,57.40
2018-04-22T06:26:06.658Z,57.50
2018-04-22T06:27:05.802Z,57.10
2018-04-22T06:28:12.150Z,56.70
2018-04-22T06:29:11.497Z,55.80
2018-04-22T06:30:06.019Z,55.80
2018-04-22T06:31:05.766Z,56.20
2018-04-22T06:32:11.488Z,56.50
2018-04-22T06:33:06.178Z,56.40
2018-04-22T06:34:13.621Z,56.60
2018-04-22T06:35:06.458Z,56.60
2018-04-22T06:36:12.564Z,56.30
2018-04-22T06:37:06.164Z,56.40
2018-04-22T06:38:11.067Z,56.30
2018-04-22T06:39:05.565Z,56.20
2018-04-22T06:40:12.551Z,54.90
2018-04-22T06:41:06.307Z,54.90
2018-04-22T06:42:06.007Z,55.20
2018-04-22T06:43:11.209Z,54.80
2018-04-22T06:44:09.642Z,54.90
2018-04-22T06:45:13.427Z,54.60
2018-04-22T06:46:06.035Z,54.60
2018-04-22T06:47:07.029Z,54.40
2018-04-22T06:48:12.507Z,54.70
2018-04-22T06:49:06.299Z,54.70
2018-04-22T06:50:05.960Z,54.70
2018-04-22T06:51:07.403Z,54.20
2018-04-22T06:52:06.313Z,54.00
2018-04-22T06:53:12.026Z,53.80
2018-04-22T06:54:05.562Z,53.90
2018-04-22T06:55:08.180Z,54.30
2018-04-22T06:56:06.352Z,54.30
2018-04-22T06:57:06.171Z,54.40
2018-04-22T06:58:13.322Z,54.20
2018-04-22T06:59:11.416Z,54.40
2018-04-22T07:00:06.382Z,54.40
2018-04-22T07:01:06.333Z,54.50
2018-04-22T07:02:15.833Z,54.00
2018-04-22T07:03:07.552Z,53.90
2018-04-22T07:04:12.272Z,53.80
2018-04-22T07:05:06.146Z,53.90
2018-04-22T07:06:08.737Z,53.80
2018-04-22T07:07:11.553Z,53.80
2018-04-22T07:08:11.737Z,53.30
2018-04-22T07:09:06.444Z,53.30
2018-04-22T07:10:12.254Z,52.90
2018-04-22T07:11:11.905Z,52.70
2018-04-22T07:12:06.222Z,52.70
2018-04-22T07:13:06.170Z,52.70
2018-04-22T07:14:06.203Z,52.40
2018-04-22T07:15:06.356Z,52.60
2018-04-22T07:16:09.048Z,52.30
2018-04-22T07:17:05.843Z,52.30
2018-04-22T07:18:09.607Z,51.00
2018-04-22T07:19:12.635Z,51.20
2018-04-22T07:20:06.305Z,51.20
2018-04-22T07:21:11.207Z,51.80
2018-04-22T07:22:06.670Z,51.90
2018-04-22T07:23:06.535Z,51.90
2018-04-22T07:24:09.083Z,50.90
2018-04-22T07:25:06.442Z,51.00
2018-04-22T07:26:08.114Z,51.50
2018-04-22T07:27:08.630Z,51.40
2018-04-22T07:28:10.956Z,51.20
2018-04-22T07:29:06.371Z,51.10
2018-04-22T07:30:06.694Z,51.30
2018-04-22T07:31:06.745Z,51.40
2018-04-22T07:32:06.392Z,51.30
2018-04-22T07:33:09.440Z,51.10
2018-04-22T07:34:11.126Z,50.90
2018-04-22T07:35:09.724Z,50.80
2018-04-22T07:36:07.398Z,51.00
2018-04-22T07:37:06.921Z,50.90
2018-04-22T07:38:06.488Z,50.50
2018-04-22T07:39:06.383Z,50.50
2018-04-22T07:40:06.402Z,50.50
2018-04-22T07:41:13.125Z,50.70
2018-04-22T07:42:12.336Z,50.80
2018-04-22T07:43:10.001Z,51.00
2018-04-22T07:44:08.210Z,51.30
2018-04-22T07:45:06.335Z,51.40
2018-04-22T07:46:12.170Z,50.80
2018-04-22T07:47:05.843Z,50.80
2018-04-22T07:48:05.877Z,50.60
2018-04-22T07:49:06.245Z,50.60
2018-04-22T07:50:06.016Z,50.90
2018-04-22T07:51:08.661Z,50.50
2018-04-22T07:52:11.576Z,50.40
2018-04-22T07:53:12.572Z,50.30
2018-04-22T07:54:15.079Z,50.30
2018-04-22T07:55:12.340Z,50.30
2018-04-22T07:56:10.210Z,50.30
2018-04-22T07:57:05.810Z,50.30
2018-04-22T07:58:11.848Z,49.90
2018-04-22T07:59:06.679Z,50.20
2018-04-22T08:00:11.835Z,50.20
2018-04-22T08:01:11.863Z,50.20
2018-04-22T08:02:06.699Z,50.40
2018-04-22T08:03:06.470Z,50.10
2018-04-22T08:04:06.131Z,50.10
2018-04-22T08:05:06.249Z,50.20
2018-04-22T08:06:09.472Z,50.10
2018-04-22T08:07:11.274Z,50.10
2018-04-22T08:08:11.351Z,50.40
2018-04-22T08:09:06.254Z,50.30
2018-04-22T08:10:06.110Z,49.70
2018-04-22T08:11:05.921Z,48.50
2018-04-22T08:12:05.881Z,48.70
2018-04-22T08:13:11.280Z,49.30
2018-04-22T08:14:11.630Z,50.00
2018-04-22T08:15:05.634Z,49.90
2018-04-22T08:16:09.726Z,49.90
2018-04-22T08:17:06.623Z,49.90
2018-04-22T08:18:06.049Z,49.70
2018-04-22T08:19:06.832Z,49.80
2018-04-22T08:20:06.070Z,49.60
2018-04-22T08:21:07.179Z,49.70
2018-04-22T08:22:05.756Z,49.50
2018-04-22T08:23:05.719Z,49.20
2018-04-22T08:24:12.630Z,48.90
2018-04-22T08:25:06.329Z,48.90
2018-04-22T08:26:06.073Z,48.90
2018-04-22T08:27:12.725Z,49.20
2018-04-22T08:28:06.281Z,49.30
2018-04-22T08:29:05.861Z,49.40
2018-04-22T08:30:10.799Z,49.00
2018-04-22T08:31:10.358Z,49.10
2018-04-22T08:32:13.640Z,49.20
2018-04-22T08:33:06.234Z,49.20
2018-04-22T08:34:06.216Z,49.20
2018-04-22T08:35:09.745Z,48.90
2018-04-22T08:36:06.434Z,48.90
2018-04-22T08:37:11.254Z,48.80
2018-04-22T08:38:06.158Z,48.70
2018-04-22T08:39:13.828Z,48.50
2018-04-22T08:40:09.496Z,48.20
2018-04-22T08:41:05.995Z,48.20
2018-04-22T08:42:09.118Z,48.00
2018-04-22T08:43:08.198Z,48.30
2018-04-22T08:44:09.825Z,48.00
2018-04-22T08:45:11.604Z,47.90
2018-04-22T08:46:05.551Z,48.00
2018-04-22T08:47:06.324Z,48.50
2018-04-22T08:48:09.128Z,48.00
2018-04-22T08:49:12.238Z,48.00
2018-04-22T08:50:06.241Z,47.50
2018-04-22T08:51:05.970Z,47.10
2018-04-22T08:52:06.279Z,46.70
2018-04-22T08:53:09.773Z,46.80
2018-04-22T08:54:06.107Z,46.80
2018-04-22T08:55:11.820Z,46.40
2018-04-22T08:56:06.344Z,46.40
2018-04-22T08:57:09.891Z,46.60
2018-04-22T08:58:09.135Z,46.70
2018-04-22T08:59:06.436Z,46.70
2018-04-22T09:00:06.404Z,46.60
2018-04-22T09:01:06.635Z,46.30
2018-04-22T09:02:05.688Z,46.00
2018-04-22T09:03:06.325Z,46.00
2018-04-22T09:04:06.847Z,46.00
2018-04-22T09:05:11.619Z,45.60
2018-04-22T09:06:06.290Z,45.50
2018-04-22T09:07:06.533Z,45.00
2018-04-22T09:08:06.337Z,45.20
2018-04-22T09:09:11.003Z,45.30
2018-04-22T09:10:11.822Z,45.50
2018-04-22T09:11:09.477Z,45.30
2018-04-22T09:12:06.207Z,45.40
2018-04-22T09:13:06.456Z,45.10
2018-04-22T09:14:11.217Z,45.30
2018-04-22T09:15:05.978Z,45.00
2018-04-22T09:16:06.021Z,44.30
2018-04-22T09:17:05.954Z,43.70
2018-04-22T09:18:06.059Z,43.60
2018-04-22T09:19:05.982Z,43.10
2018-04-22T09:20:08.520Z,39.70
2018-04-22T09:21:12.223Z,39.00
2018-04-22T09:22:12.410Z,38.50
2018-04-22T09:23:07.014Z,38.40
2018-04-22T09:24:05.801Z,38.60
2018-04-22T09:25:05.534Z,38.20
2018-04-22T09:26:09.784Z,37.10
2018-04-22T09:27:06.426Z,37.10
2018-04-22T09:28:06.475Z,36.20
2018-04-22T09:29:15.327Z,36.10
2018-04-22T09:30:06.303Z,36.10
2018-04-22T09:31:06.488Z,35.10
2018-04-22T09:32:06.061Z,36.10
2018-04-22T09:33:05.871Z,36.70
2018-04-22T09:34:06.211Z,37.40
2018-04-22T09:35:06.407Z,38.00
2018-04-22T09:36:05.977Z,38.50
2018-04-22T09:37:16.528Z,37.80
2018-04-22T09:38:09.491Z,38.00
2018-04-22T09:39:11.345Z,38.10
2018-04-22T09:40:05.851Z,38.00
2018-04-22T09:41:12.803Z,37.40
2018-04-22T09:42:06.405Z,37.20
2018-04-22T09:43:06.730Z,36.30
2018-04-22T09:44:05.721Z,35.90
2018-04-22T09:45:11.287Z,34.90
2018-04-22T09:46:08.322Z,34.50
2018-04-22T09:47:10.128Z,35.00
2018-04-22T09:48:09.500Z,35.60
2018-04-22T09:49:09.486Z,34.50
2018-04-22T09:50:05.934Z,34.50
2018-04-22T09:51:05.976Z,35.70
2018-04-22T09:52:12.531Z,35.00
2018-04-22T09:53:11.379Z,34.00
2018-04-22T09:54:06.335Z,34.00
2018-04-22T09:55:11.475Z,34.00
2018-04-22T09:56:06.556Z,34.10
2018-04-22T09:57:09.818Z,34.80
2018-04-22T09:58:11.057Z,34.50
2018-04-22T09:59:05.951Z,34.50
2018-04-22T10:00:09.252Z,32.30
2018-04-22T10:01:11.680Z,33.00
2018-04-22T10:02:06.463Z,33.00
2018-04-22T10:03:11.141Z,34.70
2018-04-22T10:04:05.688Z,34.70
2018-04-22T10:05:06.365Z,34.70
2018-04-22T10:06:16.310Z,35.20
2018-04-22T10:07:05.962Z,35.20
2018-04-22T10:08:06.381Z,35.10
2018-04-22T10:09:06.304Z,35.30
2018-04-22T10:10:06.395Z,34.80
2018-04-22T10:11:11.358Z,34.70
2018-04-22T10:12:05.971Z,34.80
2018-04-22T10:13:09.197Z,33.60
2018-04-22T10:14:08.266Z,33.70
2018-04-22T10:15:06.436Z,33.70
2018-04-22T10:16:06.315Z,34.00
2018-04-22T10:17:06.053Z,32.40
2018-04-22T10:18:06.319Z,33.20
2018-04-22T10:19:05.948Z,33.40
2018-04-22T10:20:13.380Z,33.80
2018-04-22T10:21:06.402Z,33.90
2018-04-22T10:22:12.488Z,32.70
2018-04-22T10:23:06.363Z,32.60
2018-04-22T10:24:08.590Z,30.70
2018-04-22T10:25:06.204Z,30.80
2018-04-22T10:26:05.955Z,30.20
2018-04-22T10:27:06.325Z,30.30
2018-04-22T10:28:11.680Z,30.90
2018-04-22T10:29:06.543Z,31.50
2018-04-22T10:30:06.430Z,32.20
2018-04-22T10:31:06.180Z,32.70
2018-04-22T10:32:06.248Z,33.00
2018-04-22T10:33:11.639Z,33.10
2018-04-22T10:34:06.296Z,32.60
2018-04-22T10:35:06.311Z,32.90
2018-04-22T10:36:11.404Z,33.20
2018-04-22T10:37:09.553Z,33.40
2018-04-22T10:38:12.693Z,33.10
2018-04-22T10:39:06.939Z,33.10
2018-04-22T10:40:06.482Z,32.70
2018-04-22T10:41:06.386Z,33.00
2018-04-22T10:42:06.735Z,32.30
2018-04-22T10:43:08.802Z,32.90
2018-04-22T10:44:13.610Z,32.90
2018-04-22T10:45:06.163Z,32.90
2018-04-22T10:46:06.398Z,33.20
2018-04-22T10:47:09.846Z,32.50
2018-04-22T10:48:05.549Z,32.50
2018-04-22T10:49:06.052Z,32.90
2018-04-22T10:50:08.618Z,32.80
2018-04-22T10:51:09.244Z,32.90
2018-04-22T10:52:05.925Z,32.90
2018-04-22T10:53:05.574Z,32.60
2018-04-22T10:54:13.222Z,30.90
2018-04-22T10:55:05.785Z,30.90
2018-04-22T10:56:10.859Z,31.60
2018-04-22T10:57:10.780Z,31.10
2018-04-22T10:58:06.721Z,31.50
2018-04-22T10:59:12.508Z,32.20
2018-04-22T11:00:12.232Z,32.20
2018-04-22T11:01:06.092Z,32.20
2018-04-22T11:02:08.622Z,32.40
2018-04-22T11:03:05.950Z,32.40
2018-04-22T11:04:06.020Z,31.70
2018-04-22T11:05:06.542Z,30.00
2018-04-22T11:06:05.868Z,30.00
2018-04-22T11:07:05.745Z,30.40
2018-04-22T11:08:08.691Z,30.50
2018-04-22T11:09:06.401Z,30.50
2018-04-22T11:10:06.485Z,30.40
2018-04-22T11:11:06.168Z,30.60
2018-04-22T11:12:05.620Z,30.80
2018-04-22T11:13:11.489Z,31.80
2018-04-22T11:14:06.404Z,31.80
2018-04-22T11:15:05.613Z,32.10
2018-04-22T11:16:09.207Z,32.30
2018-04-22T11:17:09.469Z,32.10
2018-04-22T11:18:11.939Z,32.40
2018-04-22T11:19:06.048Z,32.40
2018-04-22T11:20:08.119Z,31.50
2018-04-22T11:21:05.630Z,31.50
2018-04-22T11:22:12.092Z,31.40
2018-04-22T11:23:13.336Z,31.90
2018-04-22T11:24:11.428Z,32.10
2018-04-22T11:25:08.657Z,32.00
2018-04-22T11:26:11.537Z,31.90
2018-04-22T11:27:06.591Z,31.90
2018-04-22T11:28:05.689Z,31.90
2018-04-22T11:29:06.003Z,31.60
2018-04-22T11:30:08.957Z,31.80
2018-04-22T11:31:06.042Z,31.80
2018-04-22T11:32:11.011Z,32.40
2018-04-22T11:33:06.180Z,32.00
2018-04-22T11:34:13.608Z,31.20
2018-04-22T11:35:06.526Z,31.10
2018-04-22T11:36:06.717Z,30.00
2018-04-22T11:37:06.228Z,30.10
2018-04-22T11:38:06.375Z,30.30
2018-04-22T11:39:12.956Z,30.70
2018-04-22T11:40:13.370Z,30.40
2018-04-22T11:41:06.535Z,30.40
2018-04-22T11:42:09.288Z,30.50
2018-04-22T11:43:06.711Z,30.50
2018-04-22T11:44:07.681Z,30.30
2018-04-22T11:45:06.482Z,30.40
2018-04-22T11:46:06.546Z,30.20
2018-04-22T11:47:07.050Z,30.50
2018-04-22T11:48:11.829Z,30.60
2018-04-22T11:49:06.132Z,29.80
2018-04-22T11:50:05.875Z,29.80
2018-04-22T11:51:06.582Z,29.90
2018-04-22T11:52:12.749Z,30.40
2018-04-22T11:53:06.441Z,30.30
2018-04-22T11:54:08.686Z,30.30
2018-04-22T11:55:06.842Z,30.30
2018-04-22T11:56:09.032Z,29.70
2018-04-22T11:57:08.589Z,29.60
2018-04-22T11:58:09.552Z,30.20
2018-04-22T11:59:11.742Z,30.30
2018-04-22T12:00:09.039Z,30.50
2018-04-22T12:01:06.560Z,30.50
2018-04-22T12:02:09.958Z,29.60
2018-04-22T12:03:11.259Z,29.60
2018-04-22T12:04:08.436Z,29.50
2018-04-22T12:05:06.898Z,29.50
2018-04-22T12:06:06.258Z,29.80
2018-04-22T12:07:15.099Z,27.70
2018-04-22T12:08:08.293Z,28.50
2018-04-22T12:09:06.040Z,28.60
2018-04-22T12:10:13.221Z,28.80
2018-04-22T12:11:11.157Z,28.10
2018-04-22T12:12:06.510Z,28.40
2018-04-22T12:13:08.899Z,28.10
2018-04-22T12:14:05.600Z,28.20
2018-04-22T12:15:06.106Z,27.80
2018-04-22T12:16:06.152Z,28.20
2018-04-22T12:17:05.867Z,28.40
2018-04-22T12:18:09.337Z,27.60
2018-04-22T12:19:06.091Z,27.60
2018-04-22T12:20:06.497Z,28.10
2018-04-22T12:21:12.993Z,26.90
2018-04-22T12:22:05.578Z,26.80
2018-04-22T12:23:07.548Z,26.70
2018-04-22T12:24:09.339Z,27.90
2018-04-22T12:25:08.724Z,28.00
2018-04-22T12:26:06.414Z,28.00
2018-04-22T12:27:10.616Z,27.50
2018-04-22T12:28:06.326Z,27.60
2018-04-22T12:29:10.042Z,27.60
2018-04-22T12:30:06.594Z,27.60
2018-04-22T12:31:11.820Z,27.70
2018-04-22T12:32:11.834Z,27.50
2018-04-22T12:33:10.982Z,27.60
2018-04-22T12:34:09.354Z,27.70
2018-04-22T12:35:12.144Z,27.70
2018-04-22T12:36:08.208Z,27.80
2018-04-22T12:37:09.574Z,27.10
2018-04-22T12:38:11.135Z,26.40
2018-04-22T12:39:11.467Z,25.80
2018-04-22T12:40:06.332Z,25.80
2018-04-22T12:41:08.739Z,26.50
2018-04-22T12:42:09.343Z,26.80
2018-04-22T12:43:09.349Z,26.30
2018-04-22T12:44:06.223Z,26.30
2018-04-22T12:45:06.762Z,26.40
2018-04-22T12:46:06.610Z,26.90
2018-04-22T12:47:05.657Z,27.70
2018-04-22T12:48:11.754Z,26.80
2018-04-22T12:49:11.825Z,26.90
2018-04-22T12:50:09.336Z,26.50
2018-04-22T12:51:05.986Z,26.50
2018-04-22T12:52:06.153Z,26.90